createdAt,value
2023-01-29T00:00:40.018Z,18.50
2023-01-29T00:03:08.295Z,17.50
2023-01-29T00:05:36.878Z,19.70
2023-01-29T00:08:05.607Z,19.70
2023-01-29T00:10:36.286Z,18.00
2023-01-29T00:13:05.815Z,19.10
2023-01-29T00:15:34.748Z,16.80
2023-01-29T00:18:02.943Z,19.60
2023-01-29T00:20:34.885Z,22.30
2023-01-29T00:23:03.231Z,16.70
2023-01-29T00:25:31.995Z,18.90
2023-01-29T00:28:00.182Z,19.30
2023-01-29T00:30:28.841Z,21.90
2023-01-29T00:32:57.810Z,22.50
2023-01-29T00:35:26.011Z,22.80
2023-01-29T00:37:57.901Z,21.40
2023-01-29T00:40:27.309Z,20.30
2023-01-29T00:43:14.349Z,21.60
2023-01-29T00:45:42.524Z,22.50
2023-01-29T00:48:10.644Z,20.80
2023-01-29T00:50:39.104Z,19.30
2023-01-29T00:53:07.541Z,21.70
2023-01-29T00:55:36.298Z,22.50
2023-01-29T00:58:04.652Z,23.80
2023-01-29T01:00:33.051Z,22.50
2023-01-29T01:03:07.612Z,26.20
2023-01-29T01:05:37.204Z,21.50
2023-01-29T01:08:25.606Z,20.00
2023-01-29T01:11:05.171Z,20.20
2023-01-29T01:13:34.346Z,24.50
2023-01-29T01:16:02.897Z,24.40
2023-01-29T01:18:31.130Z,23.30
2023-01-29T01:20:59.817Z,24.10
2023-01-29T01:23:28.243Z,21.90
2023-01-29T01:25:56.461Z,24.20
2023-01-29T01:28:24.954Z,19.90
2023-01-29T01:30:53.322Z,21.50
2023-01-29T01:33:21.455Z,22.20
2023-01-29T01:35:49.806Z,22.40
2023-01-29T01:38:19.906Z,22.20
2023-01-29T01:40:48.808Z,22.50
2023-01-29T01:43:16.990Z,24.70
2023-01-29T01:45:46.946Z,28.00
2023-01-29T01:48:23.965Z,24.70
2023-01-29T01:51:03.833Z,24.60
2023-01-29T01:53:42.389Z,23.70
2023-01-29T01:56:16.016Z,23.20
2023-01-29T01:58:47.418Z,25.70
2023-01-29T02:01:15.596Z,24.90
2023-01-29T02:04:12.806Z,26.10
2023-01-29T02:06:59.958Z,22.30
2023-01-29T02:10:00.525Z,24.60
2023-01-29T02:12:31.422Z,27.90
2023-01-29T02:15:00.066Z,30.00
2023-01-29T02:17:28.336Z,28.80
2023-01-29T02:20:02.144Z,24.00
2023-01-29T02:22:55.405Z,25.20
2023-01-29T02:25:26.737Z,28.30
2023-01-29T02:28:21.933Z,22.10
2023-01-29T02:30:59.167Z,23.70
2023-01-29T02:33:36.497Z,25.90
2023-01-29T02:36:10.634Z,23.60
2023-01-29T02:38:38.727Z,27.00
2023-01-29T02:41:22.824Z,24.20
2023-01-29T02:44:02.783Z,25.00
2023-01-29T02:46:47.611Z,24.30
2023-01-29T02:49:32.100Z,24.90
2023-01-29T02:52:04.887Z,26.90
2023-01-29T02:54:44.797Z,25.50
2023-01-29T02:57:43.635Z,25.70
2023-01-29T03:00:26.096Z,25.10
2023-01-29T03:03:23.369Z,25.30
2023-01-29T03:05:59.374Z,22.60
2023-01-29T03:08:43.400Z,22.20
2023-01-29T03:11:15.459Z,24.80
2023-01-29T03:13:51.382Z,25.00
2023-01-29T03:16:53.395Z,24.00
2023-01-29T03:19:36.493Z,26.60
2023-01-29T03:22:08.682Z,24.40
2023-01-29T03:25:08.871Z,31.50
2023-01-29T03:28:00.758Z,27.10
2023-01-29T03:30:53.651Z,25.50
2023-01-29T03:33:35.893Z,26.10
2023-01-29T03:36:10.800Z,23.40
2023-01-29T03:38:40.204Z,28.10
2023-01-29T03:41:29.883Z,26.40
2023-01-29T03:43:58.076Z,29.10
2023-01-29T03:46:29.913Z,28.40
2023-01-29T07:54:44.449Z,26.30
2023-01-29T07:57:13.783Z,27.00
2023-01-29T07:59:41.917Z,27.40
2023-01-29T08:02:10.259Z,27.70
2023-01-29T08:04:41.533Z,26.40
2023-01-29T08:07:10.473Z,30.00
2023-01-29T08:09:39.397Z,33.60
2023-01-29T08:12:07.524Z,27.10
2023-01-29T08:14:35.645Z,31.40
2023-01-29T08:17:03.971Z,30.40
2023-01-29T08:19:32.189Z,27.80
2023-01-29T08:22:00.433Z,28.70
2023-01-29T08:24:41.484Z,26.10
2023-01-29T08:27:17.209Z,27.70
2023-01-29T08:29:45.411Z,33.30
2023-01-29T08:32:33.456Z,31.80
2023-01-29T08:35:01.610Z,29.00
2023-01-29T08:37:30.130Z,29.30
2023-01-29T08:39:58.442Z,31.20
2023-01-29T08:42:26.644Z,26.10
2023-01-29T08:44:54.779Z,31.80
2023-01-29T08:47:22.897Z,29.80
2023-01-29T08:49:51.054Z,28.50
2023-01-29T08:52:19.184Z,30.10
2023-01-29T08:54:48.131Z,29.50
2023-01-29T08:57:16.608Z,28.90
2023-01-29T08:59:44.705Z,30.30
2023-01-29T09:02:14.963Z,34.60
2023-01-29T09:04:44.284Z,31.30
2023-01-29T09:07:12.556Z,27.10
2023-01-29T09:09:40.744Z,32.10
2023-01-29T09:12:09.253Z,34.40
2023-01-29T09:14:37.611Z,28.90
2023-01-29T09:17:08.116Z,29.90
2023-01-29T09:19:36.997Z,28.80
2023-01-29T09:22:05.812Z,30.30
2023-01-29T09:24:35.329Z,33.30
2023-01-29T09:27:03.409Z,29.70
2023-01-29T09:29:35.779Z,33.70
2023-01-29T09:32:04.817Z,27.80
2023-01-29T09:34:33.460Z,33.70
2023-01-29T09:37:01.796Z,32.20
2023-01-29T09:39:30.410Z,32.80
2023-01-29T09:42:10.707Z,30.40
2023-01-29T09:44:41.703Z,33.10
2023-01-29T09:47:13.458Z,30.80
2023-01-29T09:50:02.603Z,36.10
2023-01-29T09:53:10.554Z,29.00
2023-01-29T09:55:45.353Z,32.60
2023-01-29T09:58:26.127Z,29.10
2023-01-29T10:01:06.247Z,28.40
2023-01-29T10:04:12.252Z,31.80
2023-01-29T10:06:50.028Z,28.80
2023-01-29T10:09:55.456Z,28.20
2023-01-29T10:12:23.593Z,31.10
2023-01-29T10:15:17.834Z,29.50
2023-01-29T10:18:12.805Z,26.20
2023-01-29T10:20:53.988Z,29.80
2023-01-29T10:23:23.601Z,27.80
2023-01-29T10:25:51.818Z,27.60
2023-01-29T10:28:46.562Z,28.20
2023-01-29T10:31:33.020Z,29.70
2023-01-29T10:36:42.866Z,26.80
2023-01-29T10:39:21.520Z,31.40
2023-01-29T10:42:23.973Z,30.30
2023-01-29T10:45:32.732Z,28.00
2023-01-29T10:48:30.002Z,29.10
2023-01-29T10:51:14.839Z,26.90
2023-01-29T10:54:24.221Z,28.90
2023-01-29T10:57:10.117Z,23.60
2023-01-29T10:59:47.260Z,28.00
2023-01-29T11:02:18.214Z,25.00
2023-01-29T11:04:46.602Z,23.30
2023-01-29T11:07:16.690Z,23.00
2023-01-29T11:10:04.177Z,19.90
2023-01-29T11:12:33.868Z,23.30
2023-01-29T11:15:26.317Z,23.70
2023-01-29T11:18:23.862Z,20.60
2023-01-29T11:21:03.993Z,24.30
2023-01-29T11:23:33.708Z,19.70
2023-01-29T11:26:11.087Z,23.40
2023-01-29T11:28:40.253Z,20.50
2023-01-29T11:31:35.466Z,20.70
2023-01-29T11:34:18.986Z,21.00
2023-01-29T11:36:47.188Z,20.40
2023-01-29T11:39:17.911Z,20.90
2023-01-29T11:42:05.266Z,17.90
2023-01-29T11:44:42.151Z,19.80
2023-01-29T11:47:21.536Z,18.50
2023-01-29T16:00:57.883Z,27.50
2023-01-29T16:03:27.593Z,26.40
2023-01-29T16:05:54.395Z,27.80
2023-01-29T16:08:25.393Z,23.70
2023-01-29T16:10:57.681Z,24.10
2023-01-29T16:13:27.357Z,22.90
2023-01-29T16:15:59.239Z,23.30
2023-01-29T16:18:32.378Z,23.80
2023-01-29T16:21:24.606Z,23.30
2023-01-29T16:23:57.805Z,26.20
2023-01-29T16:26:27.454Z,22.50
2023-01-29T16:28:54.294Z,22.30
2023-01-29T16:31:30.974Z,25.40
2023-01-29T16:33:58.489Z,28.70
2023-01-29T16:36:30.139Z,26.50
2023-01-29T16:38:59.905Z,28.40
2023-01-29T16:41:35.351Z,26.30
2023-01-29T16:44:14.992Z,28.70
2023-01-29T16:46:46.506Z,27.50
2023-01-29T16:49:28.723Z,21.60
2023-01-29T16:51:56.381Z,21.90
2023-01-29T16:54:27.272Z,20.30
2023-01-29T16:56:59.349Z,22.10
2023-01-29T16:59:33.016Z,25.90
2023-01-29T17:01:59.885Z,22.70
2023-01-29T17:04:26.597Z,20.30
2023-01-29T17:06:55.412Z,24.10
2023-01-29T17:09:30.845Z,23.30
2023-01-29T17:12:07.808Z,22.80
2023-01-29T17:14:41.487Z,27.40
2023-01-29T17:17:14.717Z,24.30
2023-01-29T17:19:41.418Z,25.80
2023-01-29T17:22:14.194Z,24.50
2023-01-29T17:24:41.900Z,19.10
2023-01-29T17:27:21.436Z,17.50
2023-01-29T17:29:48.447Z,13.20
2023-01-29T17:32:18.305Z,13.80
2023-01-29T17:34:46.438Z,13.70
2023-01-29T17:37:14.848Z,13.40
2023-01-29T17:39:44.392Z,12.90
2023-01-29T17:42:13.167Z,13.60
2023-01-29T17:44:42.056Z,14.70
2023-01-29T17:47:16.803Z,13.20
2023-01-29T17:49:44.294Z,14.80
2023-01-29T17:52:11.286Z,15.00
2023-01-29T17:54:38.295Z,14.10
2023-01-29T17:57:05.057Z,15.30
2023-01-29T17:59:32.602Z,21.50
2023-01-29T18:01:59.523Z,15.00
2023-01-29T18:04:26.669Z,14.30
2023-01-29T18:06:53.896Z,14.10
2023-01-29T18:09:21.123Z,14.80
2023-01-29T18:11:48.862Z,13.70
2023-01-29T18:14:15.762Z,14.30
2023-01-29T18:16:43.398Z,14.10
2023-01-29T18:19:26.773Z,16.30
2023-01-29T18:21:54.034Z,13.10
2023-01-29T18:24:20.757Z,14.40
2023-01-29T18:26:48.338Z,14.60
2023-01-29T18:29:15.679Z,12.20
2023-01-29T18:31:42.521Z,14.20
2023-01-29T18:34:09.418Z,13.00
2023-01-29T18:36:36.787Z,12.60
2023-01-29T18:39:03.600Z,11.80
2023-01-29T18:41:30.647Z,13.90
2023-01-29T18:43:57.467Z,13.80
2023-01-29T18:46:24.337Z,13.30
2023-01-29T18:48:53.669Z,14.80
2023-01-29T18:51:20.639Z,13.60
2023-01-29T18:53:50.883Z,13.10
2023-01-29T18:56:20.632Z,13.10
2023-01-29T18:58:52.719Z,11.50
2023-01-29T19:01:23.259Z,11.70
2023-01-29T19:03:50.129Z,12.80
2023-01-29T19:06:17.040Z,14.50
2023-01-29T19:08:44.227Z,12.40
2023-01-29T19:11:11.981Z,14.60
2023-01-29T19:13:40.345Z,13.40
2023-01-29T19:16:11.498Z,14.30
2023-01-29T19:18:38.568Z,13.10
2023-01-29T19:21:10.917Z,17.20
2023-01-29T19:23:37.726Z,14.30
2023-01-29T19:26:05.364Z,14.10
2023-01-29T19:28:32.401Z,14.30
2023-01-29T19:30:59.656Z,14.80
2023-01-29T19:33:27.242Z,15.20
2023-01-29T19:35:57.977Z,14.00
2023-01-29T19:38:24.977Z,13.70
2023-01-29T19:40:51.964Z,16.40
2023-01-29T19:43:18.751Z,14.10
2023-01-29T19:45:50.733Z,12.50
2023-01-29T23:59:42.285Z,10.10
